createdAt,value
2023-04-16T00:01:16.696Z,7.22
2023-04-16T00:03:43.420Z,8.57
2023-04-16T00:06:11.618Z,6.28
2023-04-16T00:08:38.349Z,7.80
2023-04-16T00:11:05.966Z,6.82
2023-04-16T00:13:32.396Z,7.18
2023-04-16T00:15:59.184Z,8.57
2023-04-16T00:18:26.273Z,6.80
2023-04-16T00:20:53.510Z,6.03
2023-04-16T00:23:20.133Z,7.07
2023-04-16T00:25:46.688Z,7.15
2023-04-16T00:28:13.171Z,5.97
2023-04-16T00:30:39.985Z,5.43
2023-04-16T00:33:06.690Z,5.88
2023-04-16T00:35:33.129Z,5.53
2023-04-16T00:37:59.570Z,5.55
2023-04-16T00:40:29.934Z,4.75
2023-04-16T00:42:56.431Z,6.30
2023-04-16T00:45:22.887Z,6.32
2023-04-16T00:47:49.910Z,4.85
2023-04-16T00:50:17.581Z,5.43
2023-04-16T00:52:44.101Z,8.90
2023-04-16T00:55:13.321Z,7.28
2023-04-16T00:57:39.889Z,6.45
2023-04-16T01:00:06.952Z,6.10
2023-04-16T01:02:34.566Z,6.25
2023-04-16T01:05:01.963Z,7.80
2023-04-16T01:07:28.545Z,5.25
2023-04-16T01:09:55.184Z,8.10
2023-04-16T01:12:21.668Z,7.03
2023-04-16T01:14:48.388Z,7.45
2023-04-16T01:17:15.052Z,6.47
2023-04-16T01:19:42.524Z,7.68
2023-04-16T01:22:09.045Z,7.40
2023-04-16T01:24:36.446Z,6.50
2023-04-16T01:27:02.946Z,9.25
2023-04-16T01:29:29.446Z,9.52
2023-04-16T01:31:56.189Z,7.72
2023-04-16T01:34:22.996Z,10.90
2023-04-16T01:36:49.495Z,6.82
2023-04-16T01:39:16.481Z,10.65
2023-04-16T01:41:43.636Z,9.63
2023-04-16T01:44:10.249Z,11.48
2023-04-16T01:46:37.751Z,8.93
2023-04-16T01:49:04.916Z,9.07
2023-04-16T01:51:32.125Z,9.73
2023-04-16T01:53:58.956Z,7.85
2023-04-16T01:56:25.739Z,9.23
2023-04-16T01:58:52.883Z,12.10
2023-04-16T02:01:19.466Z,7.63
2023-04-16T02:03:46.298Z,9.85
2023-04-16T02:06:12.995Z,8.25
2023-04-16T02:08:39.537Z,8.43
2023-04-16T02:11:05.950Z,11.43
2023-04-16T02:13:32.403Z,12.07
2023-04-16T02:15:59.295Z,8.57
2023-04-16T02:18:25.846Z,10.98
2023-04-16T02:20:52.464Z,12.00
2023-04-16T02:23:18.898Z,10.20
2023-04-16T02:25:46.834Z,13.00
2023-04-16T02:28:15.430Z,14.73
2023-04-16T02:30:42.293Z,11.60
2023-04-16T02:33:10.443Z,13.90
2023-04-16T02:35:37.928Z,9.45
2023-04-16T02:38:05.297Z,14.00
2023-04-16T02:40:32.097Z,10.85
2023-04-16T02:42:58.602Z,14.30
2023-04-16T02:45:25.336Z,12.20
2023-04-16T02:47:51.975Z,14.05
2023-04-16T02:50:18.773Z,14.60
2023-04-16T02:52:45.366Z,12.30
2023-04-16T02:55:11.950Z,14.70
2023-04-16T02:57:38.436Z,12.70
2023-04-16T03:00:05.441Z,15.60
2023-04-16T03:02:31.986Z,14.38
2023-04-16T03:04:58.668Z,15.07
2023-04-16T03:07:25.184Z,14.70
2023-04-16T03:09:51.786Z,14.95
2023-04-16T03:12:18.251Z,14.70
2023-04-16T03:14:44.626Z,13.73
2023-04-16T03:17:11.495Z,13.50
2023-04-16T03:19:37.891Z,12.70
2023-04-16T03:22:04.640Z,12.63
2023-04-16T03:24:31.128Z,13.63
2023-04-16T03:26:58.379Z,14.43
2023-04-16T03:29:26.722Z,16.85
2023-04-16T03:31:53.198Z,15.07
2023-04-16T03:34:19.756Z,16.00
2023-04-16T03:36:46.329Z,17.30
2023-04-16T03:39:12.743Z,14.68
2023-04-16T03:41:39.157Z,19.55
2023-04-16T03:44:05.754Z,15.57
2023-04-16T03:46:32.327Z,15.30
2023-04-16T03:48:58.830Z,16.80
2023-04-16T03:51:26.397Z,14.45
2023-04-16T03:53:52.887Z,18.85
2023-04-16T03:56:19.383Z,17.60
2023-04-16T03:58:45.949Z,21.30
2023-04-16T04:01:12.397Z,14.88
2023-04-16T04:03:38.929Z,16.52
2023-04-16T04:06:09.029Z,18.25
2023-04-16T04:11:01.923Z,16.70
2023-04-16T04:13:28.369Z,16.55
2023-04-16T04:15:54.913Z,13.90
2023-04-16T04:18:21.351Z,14.07
2023-04-16T04:20:47.792Z,20.77
2023-04-16T04:23:14.232Z,16.45
2023-04-16T04:25:40.781Z,17.08
2023-04-16T04:28:07.232Z,20.27
2023-04-16T04:30:35.674Z,23.17
2023-04-16T04:33:02.247Z,16.33
2023-04-16T04:35:28.745Z,19.13
2023-04-16T04:37:55.196Z,14.85
2023-04-16T04:40:21.625Z,16.90
2023-04-16T04:42:48.208Z,16.60
2023-04-16T04:45:14.703Z,15.65
2023-04-16T04:47:41.188Z,18.85
2023-04-16T04:50:08.141Z,17.73
2023-04-16T04:52:34.525Z,21.63
2023-04-16T04:55:01.241Z,16.73
2023-04-16T04:57:27.694Z,18.42
2023-04-16T04:59:54.131Z,15.75
2023-04-16T05:02:20.774Z,21.08
2023-04-16T05:04:47.311Z,16.60
2023-04-16T05:07:13.802Z,16.75
2023-04-16T05:09:42.624Z,19.05
2023-04-16T05:12:09.151Z,21.80
2023-04-16T05:14:36.365Z,18.48
2023-04-16T05:17:03.032Z,18.05
2023-04-16T05:19:32.623Z,20.38
2023-04-16T05:21:59.715Z,19.30
2023-04-16T05:24:29.288Z,18.08
2023-04-16T05:26:57.316Z,19.38
2023-04-16T05:29:24.049Z,20.40
2023-04-16T05:31:50.574Z,14.65
2023-04-16T05:34:17.092Z,20.85
2023-04-16T05:36:43.529Z,20.70
2023-04-16T05:39:10.815Z,17.33
2023-04-16T05:41:37.545Z,20.52
2023-04-16T05:44:04.181Z,21.17
2023-04-16T05:46:31.381Z,21.77
2023-04-16T05:48:57.886Z,21.92
2023-04-16T05:51:26.105Z,26.95
2023-04-16T05:53:52.516Z,26.95
2023-04-16T05:56:19.209Z,19.95
2023-04-16T05:58:45.701Z,24.70
2023-04-16T06:01:12.343Z,18.02
2023-04-16T06:03:38.952Z,20.83
2023-04-16T06:06:05.721Z,23.67
2023-04-16T06:08:32.238Z,21.75
2023-04-16T06:10:58.680Z,22.20
2023-04-16T06:13:25.169Z,18.35
2023-04-16T06:15:51.640Z,22.38
2023-04-16T06:18:18.071Z,21.95
2023-04-16T06:20:44.513Z,18.80
2023-04-16T06:23:11.153Z,21.92
2023-04-16T06:25:37.551Z,23.98
2023-04-16T06:28:04.058Z,20.15
2023-04-16T06:30:30.624Z,21.77
2023-04-16T06:32:57.083Z,22.73
2023-04-16T06:35:23.627Z,19.95
2023-04-16T06:37:50.121Z,18.27
2023-04-16T06:40:16.719Z,22.30
2023-04-16T06:42:44.883Z,20.40
2023-04-16T06:45:12.357Z,19.27
2023-04-16T06:47:38.799Z,17.42
2023-04-16T06:50:06.034Z,22.77
2023-04-16T06:52:32.527Z,20.80
2023-04-16T06:54:58.987Z,19.80
2023-04-16T06:57:25.490Z,21.55
2023-04-16T06:59:51.937Z,19.55
2023-04-16T07:02:18.498Z,23.13
2023-04-16T07:04:44.985Z,18.45
2023-04-16T07:07:11.411Z,24.20
2023-04-16T07:09:37.875Z,21.73
2023-04-16T07:12:04.411Z,20.60
2023-04-16T07:14:31.114Z,20.65
2023-04-16T07:16:57.738Z,24.13
2023-04-16T07:19:24.413Z,20.80
2023-04-16T07:21:50.800Z,17.80
2023-04-16T07:24:17.392Z,21.13
2023-04-16T07:26:43.777Z,19.23
2023-04-16T07:29:10.406Z,19.30
2023-04-16T07:31:37.056Z,15.40
2023-04-16T07:34:03.624Z,14.85
2023-04-16T07:36:30.042Z,14.60
2023-04-16T07:38:56.509Z,13.43
2023-04-16T07:41:22.992Z,12.02
2023-04-16T07:43:49.443Z,11.07
2023-04-16T07:46:16.250Z,11.50
2023-04-16T07:48:43.085Z,10.75
2023-04-16T07:51:09.475Z,14.18
2023-04-16T07:53:36.049Z,15.57
2023-04-16T07:56:02.484Z,9.55
2023-04-16T07:58:28.982Z,10.75
2023-04-16T08:00:55.548Z,9.57
2023-04-16T08:03:22.249Z,11.60
2023-04-16T08:05:48.832Z,10.00
2023-04-16T08:08:15.585Z,11.48
2023-04-16T08:10:42.151Z,9.98
2023-04-16T08:13:08.580Z,11.90
2023-04-16T08:15:35.121Z,8.57
2023-04-16T08:18:01.665Z,9.73
2023-04-16T08:20:28.260Z,9.73
2023-04-16T08:22:54.894Z,9.52
2023-04-16T08:25:23.552Z,9.43
2023-04-16T08:27:50.232Z,9.60
2023-04-16T08:30:16.719Z,10.88
2023-04-16T08:32:43.510Z,10.85
2023-04-16T08:35:10.010Z,7.95
2023-04-16T08:37:36.466Z,9.38
2023-04-16T08:40:03.486Z,11.35
2023-04-16T08:42:32.875Z,8.60
2023-04-16T08:45:17.891Z,7.82
2023-04-16T08:47:50.486Z,7.45
2023-04-16T08:50:19.408Z,10.00
2023-04-16T08:52:52.283Z,11.77
2023-04-16T08:55:23.468Z,7.82
2023-04-16T08:57:56.233Z,8.40
2023-04-16T09:00:23.822Z,7.38
2023-04-16T09:02:51.577Z,6.88
2023-04-16T09:05:19.057Z,5.63
2023-04-16T09:07:46.535Z,7.78
2023-04-16T09:10:14.760Z,6.78
2023-04-16T09:12:42.914Z,8.20
2023-04-16T09:15:13.313Z,8.13
2023-04-16T09:17:40.191Z,8.13
2023-04-16T09:20:11.213Z,5.65
2023-04-16T09:22:38.344Z,8.38
2023-04-16T09:25:05.080Z,7.68
2023-04-16T09:27:31.950Z,7.88
2023-04-16T09:29:58.634Z,7.03
2023-04-16T09:32:28.905Z,7.38
2023-04-16T09:35:00.094Z,9.95
2023-04-16T09:37:29.576Z,9.15
2023-04-16T09:40:00.804Z,8.18
2023-04-16T09:42:34.317Z,7.35
2023-04-16T09:45:03.354Z,8.57
2023-04-16T09:47:45.273Z,9.40
2023-04-16T09:50:18.167Z,10.60
2023-04-16T09:52:47.986Z,9.13
2023-04-16T09:55:14.490Z,8.88
2023-04-16T09:57:41.081Z,10.18
2023-04-16T10:00:09.500Z,10.20
2023-04-16T10:02:39.170Z,12.35
2023-04-16T10:07:37.160Z,10.18
2023-04-16T10:10:04.387Z,11.60
2023-04-16T10:12:32.622Z,14.40
2023-04-16T10:14:59.082Z,13.77
2023-04-16T10:17:26.696Z,11.52
2023-04-16T10:19:54.607Z,14.55
2023-04-16T10:22:21.377Z,16.20
2023-04-16T10:24:48.288Z,13.40
2023-04-16T10:27:14.741Z,14.05
2023-04-16T10:29:41.356Z,12.38
2023-04-16T10:32:08.040Z,15.05
2023-04-16T10:34:36.408Z,19.73
2023-04-16T10:37:02.828Z,19.30
2023-04-16T10:39:34.382Z,19.95
2023-04-16T10:42:11.924Z,19.52
2023-04-16T10:44:41.508Z,18.33
2023-04-16T10:47:12.325Z,21.23
2023-04-16T10:49:38.979Z,18.13
2023-04-16T10:52:13.690Z,22.65
2023-04-16T10:54:41.067Z,20.38
2023-04-16T10:57:09.682Z,20.40
2023-04-16T10:59:37.421Z,20.92
2023-04-16T11:02:09.682Z,17.48
2023-04-16T11:04:38.186Z,20.17
2023-04-16T11:07:07.456Z,19.58
2023-04-16T11:09:57.553Z,21.98
2023-04-16T11:12:38.778Z,18.50
2023-04-16T11:15:06.314Z,19.25
2023-04-16T11:17:37.638Z,16.05
2023-04-16T11:20:17.779Z,17.20
2023-04-16T11:22:51.175Z,13.25
2023-04-16T11:25:24.136Z,14.18
2023-04-16T11:27:53.858Z,12.93
2023-04-16T11:30:33.255Z,13.68
2023-04-16T11:33:08.496Z,13.68
2023-04-16T11:35:35.090Z,14.15
2023-04-16T11:38:01.602Z,12.77
2023-04-16T11:40:34.003Z,11.43
2023-04-16T11:43:18.615Z,11.77
2023-04-16T11:46:02.692Z,13.70
2023-04-16T11:48:55.395Z,13.30
2023-04-16T11:51:23.125Z,12.52
2023-04-16T11:53:53.475Z,12.98
2023-04-16T11:56:30.022Z,11.38
2023-04-16T11:59:12.582Z,14.63
2023-04-16T12:01:40.834Z,9.93
2023-04-16T12:04:08.106Z,14.77
2023-04-16T12:06:34.793Z,15.57
2023-04-16T12:09:25.030Z,16.88
2023-04-16T12:11:51.542Z,13.90
2023-04-16T12:14:18.049Z,13.65
2023-04-16T12:16:44.546Z,12.90
2023-04-16T12:19:12.955Z,15.57
2023-04-16T12:21:40.344Z,14.65
2023-04-16T12:24:08.200Z,16.95
2023-04-16T12:26:42.577Z,16.33
2023-04-16T12:29:20.507Z,14.70
2023-04-16T12:31:48.060Z,16.48
2023-04-16T12:34:17.494Z,18.02
2023-04-16T12:36:45.824Z,18.17
2023-04-16T12:39:13.058Z,18.08
2023-04-16T12:41:41.738Z,16.63
2023-04-16T12:44:12.463Z,22.13
2023-04-16T12:46:40.269Z,16.63
2023-04-16T12:49:07.539Z,18.63
2023-04-16T12:51:34.892Z,19.08
2023-04-16T12:54:02.252Z,17.55
2023-04-16T12:56:28.841Z,18.50
2023-04-16T12:58:56.609Z,20.30
2023-04-16T13:01:23.549Z,22.42
2023-04-16T13:03:50.142Z,21.42
2023-04-16T13:06:17.014Z,21.30
2023-04-16T13:08:44.533Z,19.77
2023-04-16T13:11:11.152Z,21.77
2023-04-16T13:13:37.609Z,18.60
2023-04-16T13:16:06.515Z,20.70
2023-04-16T13:18:33.283Z,22.85
2023-04-16T13:20:59.843Z,24.98
2023-04-16T13:23:27.013Z,24.58
2023-04-16T13:25:53.550Z,21.58
2023-04-16T13:28:20.072Z,24.58
2023-04-16T13:30:49.429Z,20.10
2023-04-16T13:33:15.941Z,21.88
2023-04-16T13:35:42.504Z,24.13
2023-04-16T13:38:09.294Z,22.48
2023-04-16T13:40:35.728Z,28.05
2023-04-16T13:43:02.195Z,16.25
2023-04-16T13:45:28.688Z,21.77
2023-04-16T13:47:56.069Z,25.88
2023-04-16T13:50:23.044Z,18.48
2023-04-16T13:52:49.448Z,23.42
2023-04-16T13:55:19.036Z,24.35
2023-04-16T13:57:47.410Z,19.10
2023-04-16T14:00:15.350Z,23.73
2023-04-16T14:02:42.779Z,18.35
2023-04-16T14:05:09.628Z,15.82
2023-04-16T14:07:37.204Z,18.58
2023-04-16T14:10:03.960Z,19.88
2023-04-16T14:12:31.597Z,16.67
2023-04-16T14:14:58.256Z,18.73
2023-04-16T14:17:24.738Z,17.88
2023-04-16T14:19:51.279Z,18.52
2023-04-16T14:22:18.242Z,20.42
2023-04-16T14:24:44.621Z,15.88
2023-04-16T14:27:11.267Z,16.60
2023-04-16T14:29:37.890Z,14.90
2023-04-16T14:32:04.734Z,14.30
2023-04-16T14:34:31.384Z,18.23
2023-04-16T14:36:57.783Z,20.77
2023-04-16T14:39:24.844Z,19.75
2023-04-16T14:41:51.293Z,14.55
2023-04-16T14:44:17.707Z,11.90
2023-04-16T14:46:44.732Z,15.40
2023-04-16T14:49:12.213Z,19.70
2023-04-16T14:51:39.041Z,14.68
2023-04-16T14:54:05.684Z,17.85
2023-04-16T14:56:32.165Z,19.48
2023-04-16T14:58:58.649Z,15.00
2023-04-16T15:01:25.181Z,14.90
2023-04-16T15:03:51.798Z,17.35
2023-04-16T15:06:19.032Z,18.92
2023-04-16T15:08:45.787Z,14.82
2023-04-16T15:11:12.229Z,17.45
2023-04-16T15:13:39.023Z,17.95
2023-04-16T15:16:05.522Z,18.33
2023-04-16T15:18:32.695Z,15.35
2023-04-16T15:20:59.353Z,15.60
2023-04-16T15:23:25.882Z,18.88
2023-04-16T15:25:52.260Z,19.70
2023-04-16T15:28:18.745Z,15.32
2023-04-16T15:30:45.340Z,17.90
2023-04-16T15:33:11.943Z,17.00
2023-04-16T15:35:41.357Z,18.80
2023-04-16T15:38:08.182Z,23.70
2023-04-16T15:40:35.520Z,15.68
2023-04-16T15:43:01.961Z,16.15
2023-04-16T15:45:28.459Z,15.90
2023-04-16T15:47:55.975Z,20.40
2023-04-16T15:50:22.717Z,21.15
2023-04-16T15:52:49.270Z,15.20
2023-04-16T15:55:16.701Z,18.15
2023-04-16T15:57:43.137Z,22.13
2023-04-16T16:00:16.119Z,18.35
2023-04-16T16:02:47.042Z,17.27
2023-04-16T16:05:14.259Z,18.77
2023-04-16T16:07:41.367Z,23.15
2023-04-16T16:10:09.232Z,17.85
2023-04-16T16:12:35.972Z,21.55
2023-04-16T16:15:02.422Z,22.17
2023-04-16T16:17:29.472Z,19.00
2023-04-16T16:19:57.608Z,21.08
2023-04-16T16:22:24.434Z,20.88
2023-04-16T16:24:51.423Z,20.55
2023-04-16T16:27:21.386Z,22.17
2023-04-16T16:29:48.004Z,21.52
2023-04-16T16:32:14.661Z,17.88
2023-04-16T16:34:41.138Z,21.20
2023-04-16T16:37:07.677Z,23.08
2023-04-16T16:39:35.214Z,23.88
2023-04-16T16:42:02.479Z,19.02
2023-04-16T16:44:29.047Z,23.73
2023-04-16T16:46:55.473Z,25.67
2023-04-16T16:49:21.862Z,23.05
2023-04-16T16:51:48.579Z,24.52
2023-04-16T16:54:15.429Z,21.42
2023-04-16T16:56:41.962Z,21.80
2023-04-16T16:59:09.001Z,25.42
2023-04-16T17:01:35.837Z,19.55
2023-04-16T17:04:02.646Z,21.23
2023-04-16T17:06:29.290Z,22.50
2023-04-16T17:08:55.837Z,19.67
2023-04-16T17:11:22.248Z,24.33
2023-04-16T17:13:48.775Z,21.50
2023-04-16T17:16:17.563Z,21.05
2023-04-16T17:18:44.196Z,20.10
2023-04-16T17:21:10.769Z,25.92
2023-04-16T17:23:37.971Z,19.20
2023-04-16T17:26:05.934Z,23.55
2023-04-16T17:28:32.403Z,22.92
2023-04-16T17:30:59.501Z,22.58
2023-04-16T17:33:26.034Z,23.15
2023-04-16T17:35:52.521Z,20.33
2023-04-16T17:38:18.993Z,22.10
2023-04-16T17:40:45.657Z,21.52
2023-04-16T17:43:12.107Z,20.63
2023-04-16T17:45:38.593Z,26.92
2023-04-16T17:48:05.610Z,23.67
2023-04-16T17:50:32.103Z,22.27
2023-04-16T17:53:03.484Z,20.35
2023-04-16T17:55:30.988Z,21.88
2023-04-16T17:57:57.448Z,23.10
2023-04-16T18:00:24.018Z,24.75
2023-04-16T18:02:52.326Z,23.23
2023-04-16T18:05:21.680Z,24.42
2023-04-16T18:07:48.339Z,22.15
2023-04-16T18:10:14.872Z,24.05
2023-04-16T18:12:41.384Z,26.88
2023-04-16T18:15:08.428Z,24.88
2023-04-16T18:17:35.095Z,25.88
2023-04-16T18:20:01.736Z,22.27
2023-04-16T18:22:28.525Z,26.75
2023-04-16T18:24:55.324Z,26.67
2023-04-16T18:27:21.954Z,26.83
2023-04-16T18:29:49.363Z,24.67
2023-04-16T18:32:16.387Z,27.55
2023-04-16T18:34:43.018Z,25.67
2023-04-16T18:37:09.579Z,29.08
2023-04-16T18:39:36.933Z,28.75
2023-04-16T18:42:03.959Z,29.85
2023-04-16T18:44:30.510Z,25.75
2023-04-16T18:46:57.112Z,25.75
2023-04-16T18:49:23.797Z,29.45
2023-04-16T18:51:50.296Z,28.52
2023-04-16T18:54:17.020Z,27.85
2023-04-16T18:56:43.479Z,33.03
2023-04-16T18:59:10.127Z,27.70
2023-04-16T19:01:36.823Z,30.48
2023-04-16T19:04:03.486Z,29.05
2023-04-16T19:06:30.047Z,27.98
2023-04-16T19:08:56.558Z,27.13
2023-04-16T19:11:22.984Z,28.02
2023-04-16T19:13:49.430Z,28.20
2023-04-16T19:16:16.913Z,28.75
2023-04-16T19:18:43.477Z,27.17
2023-04-16T19:21:10.899Z,24.80
2023-04-16T19:23:37.482Z,26.13
2023-04-16T19:26:04.065Z,29.60
2023-04-16T19:28:30.702Z,26.30
2023-04-16T19:30:57.234Z,27.90
2023-04-16T19:33:23.732Z,26.10
2023-04-16T19:35:50.371Z,27.08
2023-04-16T19:38:16.950Z,24.48
2023-04-16T19:40:48.211Z,27.80
2023-04-16T19:43:14.963Z,30.70
2023-04-16T19:45:53.263Z,26.70
2023-04-16T19:48:20.718Z,28.23
2023-04-16T19:50:47.866Z,33.17
2023-04-16T19:53:14.450Z,27.88
2023-04-16T19:55:41.302Z,29.98
2023-04-16T19:58:08.433Z,28.70
2023-04-16T20:00:36.848Z,27.58
2023-04-16T20:03:03.982Z,28.63
2023-04-16T20:05:30.631Z,30.95
2023-04-16T20:07:57.068Z,29.25
2023-04-16T20:10:24.136Z,30.33
2023-04-16T20:12:50.896Z,31.08
2023-04-16T20:15:17.861Z,33.33
2023-04-16T20:17:44.343Z,31.48
2023-04-16T20:20:11.367Z,31.58
2023-04-16T20:22:38.324Z,29.92
2023-04-16T20:25:05.595Z,26.98
2023-04-16T20:27:32.667Z,32.42
2023-04-16T20:29:59.697Z,32.35
2023-04-16T20:32:27.633Z,35.08
2023-04-16T20:34:55.240Z,29.63
2023-04-16T20:37:21.714Z,35.70
2023-04-16T20:39:50.029Z,32.58
2023-04-16T20:42:16.805Z,33.03
2023-04-16T20:44:50.074Z,33.20
2023-04-16T20:47:17.232Z,31.55
2023-04-16T20:49:49.342Z,32.63
2023-04-16T20:52:16.558Z,32.40
2023-04-16T20:54:42.983Z,31.95
2023-04-16T20:57:09.493Z,33.10
2023-04-16T20:59:38.810Z,34.28
2023-04-16T21:02:05.813Z,28.05
2023-04-16T21:04:32.334Z,30.27
2023-04-16T21:06:58.817Z,32.05
2023-04-16T21:09:25.365Z,32.78
2023-04-16T21:11:51.796Z,33.15
2023-04-16T21:14:18.518Z,32.83
2023-04-16T21:16:44.979Z,28.05
2023-04-16T21:19:11.663Z,32.55
2023-04-16T21:21:38.850Z,31.83
2023-04-16T21:24:05.627Z,31.88
2023-04-16T21:26:32.065Z,31.23
2023-04-16T21:28:58.520Z,29.73
2023-04-16T21:31:25.008Z,31.05
2023-04-16T21:33:51.445Z,31.80
2023-04-16T21:36:17.888Z,30.30
2023-04-16T21:38:44.429Z,29.85
2023-04-16T21:41:11.291Z,28.67
2023-04-16T21:43:37.737Z,29.60
2023-04-16T21:46:04.188Z,29.55
2023-04-16T21:48:30.596Z,29.50
2023-04-16T21:50:58.162Z,32.05
2023-04-16T21:53:25.904Z,33.45
2023-04-16T21:55:52.406Z,34.53
2023-04-16T21:58:18.894Z,33.88
2023-04-16T22:00:45.534Z,33.20
2023-04-16T22:03:12.400Z,30.52
2023-04-16T22:05:39.091Z,32.03
2023-04-16T22:08:20.871Z,30.63
2023-04-16T22:10:50.369Z,31.88
2023-04-16T22:13:17.771Z,32.20
2023-04-16T22:15:44.176Z,33.10
2023-04-16T22:18:11.456Z,28.40
2023-04-16T22:20:39.112Z,31.20
2023-04-16T22:23:06.553Z,33.50
2023-04-16T22:25:33.404Z,30.30
2023-04-16T22:28:01.462Z,30.92
2023-04-16T22:30:28.013Z,34.40
2023-04-16T22:32:54.537Z,30.83
2023-04-16T22:35:21.031Z,33.72
2023-04-16T22:37:47.469Z,32.53
2023-04-16T22:40:14.923Z,34.83
2023-04-16T22:42:41.520Z,30.85
2023-04-16T22:45:08.801Z,30.30
2023-04-16T22:47:35.295Z,32.47
2023-04-16T22:50:01.776Z,36.13
2023-04-16T22:52:28.294Z,32.58
2023-04-16T22:54:54.725Z,30.95
2023-04-16T22:57:24.673Z,34.42
2023-04-16T23:02:18.480Z,29.92
2023-04-16T23:04:46.212Z,31.38
2023-04-16T23:07:12.683Z,37.03
2023-04-16T23:09:39.126Z,31.00
2023-04-16T23:12:05.830Z,35.58
2023-04-16T23:14:32.318Z,31.30
2023-04-16T23:16:58.699Z,32.75
2023-04-16T23:19:25.227Z,38.10
2023-04-16T23:21:51.832Z,30.02
2023-04-16T23:24:18.236Z,31.52
2023-04-16T23:26:44.695Z,27.13
2023-04-16T23:29:11.396Z,26.45
2023-04-16T23:31:37.988Z,27.85
2023-04-16T23:34:04.456Z,30.75
2023-04-16T23:36:31.064Z,30.58
2023-04-16T23:38:57.531Z,35.10
2023-04-16T23:41:24.008Z,31.63
2023-04-16T23:43:50.671Z,31.02
2023-04-16T23:46:17.157Z,29.75
2023-04-16T23:48:43.580Z,33.28
2023-04-16T23:51:09.999Z,33.28
2023-04-16T23:53:36.759Z,39.17
2023-04-16T23:56:03.266Z,32.17
2023-04-16T23:58:29.657Z,32.63
